Time;durP1;ratioP1;P1;durP2;ratioP2;P2;SDS_P1;SDS_P2;PMS_P1;PMS_P2;Temp;Humidity;BMP_temperature;BMP_pressure;BME280_temperature;BME280_humidity;BME280_pressure;Samples;Min_cycle;Max_cycle;Signal;HPM_P1;HPM_P2
2021/08/02 00:02:25;;;;;;;12.95;6.00;;;;;;;17.27;89.36;99445.83;2918448;81;20988;-64
2021/08/02 00:06:35;;;;;;;12.88;6.22;;;;;;;17.25;89.42;99455.94;2912652;81;21007;-61
2021/08/02 00:10:38;;;;;;;14.75;6.62;;;;;;;17.23;89.69;99444.55;2919601;80;21035;-62
2021/08/02 00:14:46;;;;;;;10.50;5.97;;;;;;;17.25;89.52;99446.53;2919693;80;21083;-62
2021/08/02 00:18:50;;;;;;;12.28;6.30;;;;;;;17.24;89.33;99451.59;2920345;81;21018;-62
2021/08/02 00:22:56;;;;;;;12.03;6.15;;;;;;;17.15;89.42;99454.58;2920220;81;20999;-62
2021/08/02 00:27:01;;;;;;;14.90;5.87;;;;;;;17.13;89.61;99453.44;2920358;81;21560;-61
2021/08/02 00:31:06;;;;;;;15.80;6.75;;;;;;;17.07;89.48;99454.17;2920694;81;20968;-61
2021/08/02 00:35:10;;;;;;;19.15;8.55;;;;;;;17.06;89.64;99452.02;2946928;80;21019;-63
2021/08/02 00:39:52;;;;;;;9.58;5.87;;;;;;;17.08;89.06;99458.52;2962798;80;21507;-62
2021/08/02 00:44:35;;;;;;;24.75;6.70;;;;;;;17.02;88.60;99470.03;2962529;80;20995;-61
2021/08/02 00:48:46;;;;;;;23.75;6.67;;;;;;;16.97;88.79;99471.41;2961960;80;20975;-63
2021/08/02 00:53:03;;;;;;;13.80;7.83;;;;;;;16.95;88.66;99469.42;2960620;80;21556;-65
2021/08/02 00:57:12;;;;;;;10.88;6.62;;;;;;;16.93;88.60;99462.56;2956618;80;21004;-60
2021/08/02 01:01:17;;;;;;;16.23;6.37;;;;;;;16.87;88.87;99467.34;2962244;80;21066;-61
2021/08/02 01:05:24;;;;;;;14.07;6.30;;;;;;;16.80;88.95;99458.70;2962589;80;20987;-61
2021/08/02 01:09:29;;;;;;;17.48;7.50;;;;;;;16.74;89.46;99456.75;2962367;79;21071;-63
2021/08/02 01:13:38;;;;;;;27.37;7.40;;;;;;;16.70;89.75;99449.59;2952138;80;21520;-66
2021/08/02 01:17:47;;;;;;;12.95;6.30;;;;;;;16.67;89.84;99452.63;2901762;81;21513;-62
2021/08/02 01:21:49;;;;;;;9.68;5.45;;;;;;;16.67;90.11;99453.97;2952380;80;20993;-67
2021/08/02 01:25:59;;;;;;;16.15;8.38;;;;;;;16.65;90.41;99461.38;2901532;82;21031;-69
2021/08/02 01:30:20;;;;;;;25.00;6.87;;;;;;;16.65;90.45;99468.09;2901646;81;21027;-66
2021/08/02 01:34:22;;;;;;;12.18;6.83;;;;;;;16.65;90.31;99468.62;2875615;81;21018;-64
2021/08/02 01:38:29;;;;;;;12.50;7.65;;;;;;;16.60;90.53;99474.53;2906388;82;21055;-63
2021/08/02 01:42:33;;;;;;;14.43;7.00;;;;;;;16.58;90.79;99468.52;2906084;82;21482;-60
2021/08/02 01:46:46;;;;;;;11.73;6.87;;;;;;;16.56;90.91;99475.93;2906538;82;20988;-63
2021/08/02 01:51:02;;;;;;;15.98;7.20;;;;;;;16.56;91.00;99478.09;2902157;82;21016;-67
2021/08/02 01:55:18;;;;;;;12.63;6.22;;;;;;;16.55;90.98;99482.32;2906515;81;20999;-64
2021/08/02 01:59:42;;;;;;;9.98;5.92;;;;;;;16.50;91.01;99484.70;2906586;81;21520;-65
2021/08/02 02:03:47;;;;;;;13.03;6.33;;;;;;;16.48;91.17;99484.91;2904934;82;20991;-61
2021/08/02 02:08:01;;;;;;;17.62;7.67;;;;;;;16.46;91.34;99488.78;2906086;82;21043;-64
2021/08/02 02:12:09;;;;;;;20.02;6.85;;;;;;;16.45;91.52;99487.95;2895576;82;21552;-61
2021/08/02 02:16:16;;;;;;;9.08;5.95;;;;;;;16.45;91.55;99487.95;2906201;82;21056;-64
2021/08/02 02:20:20;;;;;;;10.70;5.67;;;;;;;16.42;91.59;99497.20;2879009;82;21055;-63
2021/08/02 02:24:26;;;;;;;8.65;7.15;;;;;;;16.37;91.93;99502.78;2906090;82;21528;-69
2021/08/02 02:28:31;;;;;;;7.42;5.53;;;;;;;16.36;92.36;99507.34;2906288;82;21031;-63
2021/08/02 02:32:36;;;;;;;10.35;6.03;;;;;;;16.38;92.75;99503.96;2906158;82;21004;-62
2021/08/02 02:36:41;;;;;;;13.68;6.62;;;;;;;16.43;93.06;99507.44;2951530;80;21027;-64
2021/08/02 02:40:46;;;;;;;9.30;5.92;;;;;;;16.51;93.15;99509.22;2958596;80;21031;-60
2021/08/02 02:44:51;;;;;;;8.00;4.70;;;;;;;16.60;93.31;99512.62;2831400;83;21046;-60
2021/08/02 02:49:01;;;;;;;9.55;5.42;;;;;;;16.67;93.24;99513.56;2879213;82;21648;-63
2021/08/02 02:53:09;;;;;;;12.55;6.53;;;;;;;16.77;93.08;99520.00;2879890;82;21059;-62
2021/08/02 02:57:16;;;;;;;7.92;5.87;;;;;;;16.79;92.79;99519.30;2831262;84;21023;-63
2021/08/02 03:01:29;;;;;;;9.80;6.85;;;;;;;16.77;92.62;99525.38;2879738;82;21075;-60
2021/08/02 03:05:37;;;;;;;7.47;6.50;;;;;;;16.74;92.62;99529.25;2831143;84;20992;-60
2021/08/02 03:09:44;;;;;;;12.58;6.65;;;;;;;16.72;92.72;99537.19;2830692;83;21134;-62
2021/08/02 03:13:51;;;;;;;10.55;6.55;;;;;;;16.70;92.71;99542.23;2879886;82;21039;-61
2021/08/02 03:17:53;;;;;;;11.10;5.90;;;;;;;16.71;92.60;99545.73;2831234;84;21034;-60
2021/08/02 03:21:54;;;;;;;10.10;6.50;;;;;;;16.68;92.47;99560.35;2879953;82;21063;-64
2021/08/02 03:26:03;;;;;;;9.28;6.78;;;;;;;16.69;92.48;99565.23;2831109;84;21039;-63
2021/08/02 03:30:11;;;;;;;7.30;5.42;;;;;;;16.67;92.73;99573.98;2879310;82;21051;-63
2021/08/02 03:34:20;;;;;;;21.48;5.95;;;;;;;16.63;93.06;99570.00;2844705;82;20992;-63
2021/08/02 03:38:25;;;;;;;7.40;6.28;;;;;;;16.66;93.50;99581.19;2876839;82;20995;-63
2021/08/02 03:42:29;;;;;;;14.40;6.42;;;;;;;16.71;93.67;99577.96;2901388;82;20995;-62
2021/08/02 03:46:34;;;;;;;8.43;6.53;;;;;;;16.74;93.71;99584.30;2906879;82;21509;-64
2021/08/02 03:50:42;;;;;;;10.60;6.30;;;;;;;16.79;93.93;99584.58;2901163;82;21584;-61
2021/08/02 03:54:45;;;;;;;13.20;7.12;;;;;;;16.86;93.94;99598.11;2906919;82;21016;-63
2021/08/02 03:58:48;;;;;;;8.78;6.35;;;;;;;16.92;94.04;99598.73;2901327;82;20988;-62
2021/08/02 04:02:51;;;;;;;11.10;6.42;;;;;;;16.94;93.80;99602.06;2906953;82;20980;-63
2021/08/02 04:06:54;;;;;;;9.45;6.33;;;;;;;16.94;93.95;99606.09;2901412;82;21019;-62
2021/08/02 04:10:57;;;;;;;9.25;5.60;;;;;;;16.99;94.20;99609.09;2907093;82;21110;-64
2021/08/02 04:14:58;;;;;;;12.18;6.08;;;;;;;17.03;94.25;99612.74;2901340;82;21537;-66
2021/08/02 04:19:00;;;;;;;9.80;6.15;;;;;;;17.06;94.07;99615.91;2907172;82;20972;-66
2021/08/02 04:23:04;;;;;;;11.12;6.20;;;;;;;17.12;94.00;99621.88;2901314;82;20995;-64
2021/08/02 04:27:06;;;;;;;7.83;4.90;;;;;;;17.16;93.69;99630.41;2907129;82;20972;-64
2021/08/02 04:31:07;;;;;;;7.60;6.00;;;;;;;17.19;93.53;99642.13;2901370;82;20980;-66
2021/08/02 04:35:09;;;;;;;8.23;5.87;;;;;;;17.20;93.75;99646.48;2906995;81;21031;-64
2021/08/02 04:39:13;;;;;;;6.92;6.30;;;;;;;17.23;93.85;99648.80;2901068;82;21015;-68
2021/08/02 04:43:15;;;;;;;7.25;6.55;;;;;;;17.31;93.87;99646.52;2907066;82;20980;-64
2021/08/02 04:47:17;;;;;;;9.00;5.87;;;;;;;17.37;93.58;99645.77;2901479;81;20963;-66
2021/08/02 04:51:18;;;;;;;8.60;5.78;;;;;;;17.46;93.75;99655.10;2909691;81;21097;-66
2021/08/02 04:55:20;;;;;;;7.12;5.83;;;;;;;17.55;93.75;99660.19;2954539;80;21027;-64
2021/08/02 04:59:23;;;;;;;9.83;7.35;;;;;;;17.65;93.22;99658.56;2954020;80;21045;-65
2021/08/02 05:03:28;;;;;;;13.50;7.15;;;;;;;17.75;93.08;99666.83;2954408;80;21009;-65
2021/08/02 05:07:31;;;;;;;10.45;7.22;;;;;;;17.78;92.89;99667.80;2954255;80;21047;-69
2021/08/02 05:11:34;;;;;;;9.25;5.87;;;;;;;17.81;93.28;99673.64;2954484;80;21047;-64
2021/08/02 05:15:37;;;;;;;9.78;6.00;;;;;;;17.90;93.37;99677.05;2953830;80;21035;-62
2021/08/02 05:19:39;;;;;;;8.00;5.50;;;;;;;17.96;92.80;99688.40;2954343;80;20976;-66
2021/08/02 05:23:41;;;;;;;8.25;7.20;;;;;;;17.96;93.17;99687.05;2954307;80;21019;-66
2021/08/02 05:27:53;;;;;;;10.28;6.75;;;;;;;18.02;93.43;99686.84;2954722;80;20971;-65
2021/08/02 05:31:56;;;;;;;8.33;6.92;;;;;;;18.09;93.25;99691.81;2954224;80;29648;-67
2021/08/02 05:36:03;;;;;;;9.35;5.60;;;;;;;18.23;92.93;99691.94;2952601;80;21051;-65
2021/08/02 05:40:05;;;;;;;8.58;7.15;;;;;;;18.32;92.19;99690.81;2948769;80;21051;-63
2021/08/02 05:44:11;;;;;;;6.47;5.72;;;;;;;18.43;92.37;99698.04;2951511;80;21011;-68
2021/08/02 05:48:14;;;;;;;6.70;5.37;;;;;;;18.53;92.08;99691.31;2952103;80;20964;-66
2021/08/02 05:52:16;;;;;;;8.20;7.10;;;;;;;18.62;91.17;99693.89;2952165;80;21007;-65
2021/08/02 05:56:17;;;;;;;11.95;7.47;;;;;;;18.66;91.12;99698.67;2952185;80;21359;-65
2021/08/02 06:00:20;;;;;;;10.25;6.47;;;;;;;18.69;90.46;99699.66;2952406;80;21019;-64
2021/08/02 06:04:22;;;;;;;8.98;6.05;;;;;;;18.74;90.24;99704.97;2952429;80;20944;-65
2021/08/02 06:08:23;;;;;;;14.98;5.62;;;;;;;18.76;90.50;99705.61;2952292;80;20991;-62
2021/08/02 06:12:25;;;;;;;10.05;6.25;;;;;;;18.75;89.55;99707.98;2952360;80;20960;-65
2021/08/02 06:16:27;;;;;;;10.68;6.33;;;;;;;18.86;89.66;99703.40;2952503;80;21027;-62
2021/08/02 06:20:30;;;;;;;5.60;4.83;;;;;;;18.97;88.78;99702.88;2952435;80;20991;-63
2021/08/02 06:24:32;;;;;;;7.28;4.72;;;;;;;18.95;87.87;99703.59;2952101;80;20980;-63
2021/08/02 06:28:35;;;;;;;8.20;5.08;;;;;;;18.90;88.23;99709.23;2952224;80;21023;-66
2021/08/02 06:32:37;;;;;;;5.67;4.83;;;;;;;18.87;87.24;99713.67;2952234;80;21062;-63
2021/08/02 06:36:39;;;;;;;11.55;6.05;;;;;;;18.98;88.05;99714.01;2954051;80;21066;-62
2021/08/02 06:40:40;;;;;;;9.30;5.03;;;;;;;19.08;87.43;99720.94;2955512;80;20968;-64
2021/08/02 06:44:43;;;;;;;7.80;4.72;;;;;;;19.20;86.80;99726.09;2955428;80;21007;-65
2021/08/02 06:48:46;;;;;;;6.92;3.85;;;;;;;19.30;86.71;99717.66;2933126;80;21035;-65
2021/08/02 06:52:48;;;;;;;6.28;4.20;;;;;;;19.55;86.48;99719.87;2914427;80;21010;-64
2021/08/02 06:56:59;;;;;;;6.10;4.35;;;;;;;19.85;84.66;99720.97;2946619;80;21066;-67
2021/08/02 07:01:01;;;;;;;6.30;5.20;;;;;;;20.09;83.47;99721.00;2909221;80;21022;-65
2021/08/02 07:05:09;;;;;;;7.30;4.40;;;;;;;20.38;81.81;99728.98;2941420;80;21059;-65
2021/08/02 07:09:13;;;;;;;5.03;3.92;;;;;;;20.46;80.56;99726.61;2927954;80;21053;-66
2021/08/02 07:13:15;;;;;;;6.78;3.33;;;;;;;20.79;80.44;99729.34;2928056;80;21066;-62
2021/08/02 07:17:17;;;;;;;4.42;3.55;;;;;;;21.02;77.92;99721.88;2934391;80;20972;-64
2021/08/02 07:21:21;;;;;;;4.97;3.92;;;;;;;20.93;77.62;99734.27;2946664;80;20976;-63
2021/08/02 07:25:23;;;;;;;4.58;3.77;;;;;;;20.89;77.60;99725.42;2915826;80;21023;-63
2021/08/02 07:29:25;;;;;;;5.97;4.97;;;;;;;20.89;78.04;99729.47;2905403;82;21023;-63
2021/08/02 07:33:27;;;;;;;4.30;3.58;;;;;;;21.08;78.09;99725.94;2928277;80;21023;-63
2021/08/02 07:37:31;;;;;;;4.55;3.50;;;;;;;21.11;76.20;99726.86;2930370;80;20999;-62
2021/08/02 07:41:33;;;;;;;5.97;3.02;;;;;;;21.10;77.54;99727.09;2899906;81;20982;-64
2021/08/02 07:45:35;;;;;;;6.50;4.75;;;;;;;21.08;76.50;99728.64;2880645;81;20982;-65
2021/08/02 07:49:39;;;;;;;3.62;3.33;;;;;;;21.04;76.61;99730.64;2912477;81;20971;-65
2021/08/02 07:53:41;;;;;;;5.12;2.77;;;;;;;21.08;77.47;99732.70;2904733;81;20956;-64
2021/08/02 07:57:45;;;;;;;3.35;2.98;;;;;;;21.05;76.52;99748.53;2930774;80;21043;-64
2021/08/02 08:01:47;;;;;;;5.90;3.70;;;;;;;20.98;77.03;99745.28;2934288;80;20996;-63
2021/08/02 08:05:51;;;;;;;4.15;3.15;;;;;;;20.80;76.09;99751.81;2950567;80;21035;-63
2021/08/02 08:09:53;;;;;;;2.77;2.12;;;;;;;20.67;76.56;99757.50;2944670;80;21023;-63
2021/08/02 08:13:54;;;;;;;4.60;2.45;;;;;;;20.66;76.51;99763.10;2948005;80;21444;-63
2021/08/02 08:18:05;;;;;;;3.15;2.85;;;;;;;20.58;78.82;99773.58;2960434;80;20996;-64
2021/08/02 08:22:06;;;;;;;6.05;2.27;;;;;;;20.58;79.38;99774.93;2958367;80;21496;-63
2021/08/02 08:26:08;;;;;;;3.95;2.50;;;;;;;20.53;78.45;99776.07;2959272;80;20991;-64
2021/08/02 08:30:12;;;;;;;3.67;2.85;;;;;;;20.51;79.26;99788.41;2895529;80;20979;-63
2021/08/02 08:34:14;;;;;;;2.95;2.42;;;;;;;20.44;78.64;99789.43;2964782;80;21061;-63
2021/08/02 08:38:15;;;;;;;2.87;2.30;;;;;;;20.36;79.00;99784.53;2956783;80;21476;-63
2021/08/02 08:42:18;;;;;;;5.05;2.35;;;;;;;20.31;80.25;99788.37;2911331;81;21028;-63
2021/08/02 08:46:23;;;;;;;2.83;2.52;;;;;;;20.33;79.82;99791.70;2927247;81;21010;-63
2021/08/02 08:50:25;;;;;;;3.35;2.55;;;;;;;20.22;79.54;99789.56;2932542;81;21011;-64
2021/08/02 08:54:31;;;;;;;3.20;2.95;;;;;;;20.30;81.39;99796.16;2923528;81;21003;-63
2021/08/02 08:58:33;;;;;;;4.25;3.72;;;;;;;20.43;80.11;99798.57;2921786;81;20983;-62
2021/08/02 09:02:35;;;;;;;4.08;3.67;;;;;;;20.75;80.17;99798.88;2928430;81;20999;-63
2021/08/02 09:06:50;;;;;;;3.90;3.10;;;;;;;20.97;77.75;99802.28;2881302;82;21481;-62
2021/08/02 09:10:58;;;;;;;4.22;3.62;;;;;;;20.91;76.74;99806.62;2908400;81;21094;-63
2021/08/02 09:15:06;;;;;;;3.25;2.98;;;;;;;21.05;78.51;99802.06;2908811;82;21051;-62
2021/08/02 09:19:10;;;;;;;4.78;3.10;;;;;;;21.33;77.15;99790.73;2902546;81;21066;-63
2021/08/02 09:23:15;;;;;;;3.87;3.58;;;;;;;21.31;75.43;99788.77;2934043;80;20987;-63
2021/08/02 09:27:27;;;;;;;4.30;3.45;;;;;;;21.40;75.21;99791.55;2913349;81;21051;-62
2021/08/02 09:31:48;;;;;;;5.33;3.70;;;;;;;21.47;74.44;99800.51;2957437;80;21512;-65
2021/08/02 09:35:51;;;;;;;3.80;3.20;;;;;;;21.63;73.86;99802.47;2945103;80;21003;-64
2021/08/02 09:39:59;;;;;;;3.85;2.87;;;;;;;21.61;73.20;99785.59;2922235;80;20980;-64
2021/08/02 09:44:04;;;;;;;3.98;2.98;;;;;;;21.67;72.53;99791.02;2931495;80;20980;-65
2021/08/02 09:48:07;;;;;;;3.08;2.80;;;;;;;21.92;73.64;99781.39;2934110;80;21015;-65
2021/08/02 09:52:08;;;;;;;4.65;2.72;;;;;;;22.11;70.67;99768.30;2928126;80;21023;-63
2021/08/02 09:56:16;;;;;;;4.30;3.60;;;;;;;22.22;70.03;99778.17;2927002;80;20979;-64
2021/08/02 10:00:19;;;;;;;4.15;3.33;;;;;;;22.41;69.03;99777.75;2929969;80;21054;-63
2021/08/02 10:04:41;;;;;;;9.60;4.72;;;;;;;22.58;68.68;99765.89;2915376;80;21117;-65
2021/08/02 10:08:49;;;;;;;4.67;3.25;;;;;;;22.79;67.79;99776.92;2923747;80;21027;-63
2021/08/02 10:12:51;;;;;;;6.37;4.42;;;;;;;22.81;67.98;99777.53;2927767;80;21054;-63
2021/08/02 10:17:02;;;;;;;7.47;3.75;;;;;;;22.79;69.35;99775.57;2923402;80;21031;-63
2021/08/02 10:21:12;;;;;;;6.85;3.70;;;;;;;23.02;67.54;99776.86;2949161;80;21113;-62
2021/08/02 10:25:15;;;;;;;5.67;3.83;;;;;;;23.46;67.46;99774.22;2949724;80;21019;-63
2021/08/02 10:29:18;;;;;;;4.50;4.10;;;;;;;23.74;66.33;99764.73;2950084;80;21051;-63
2021/08/02 10:33:22;;;;;;;10.72;3.70;;;;;;;23.94;64.14;99759.60;2946841;80;20990;-63
2021/08/02 10:37:35;;;;;;;3.40;2.92;;;;;;;23.90;64.36;99754.33;2914182;80;21035;-63
2021/08/02 10:41:38;;;;;;;4.75;3.50;;;;;;;23.66;63.35;99772.64;2905014;80;21023;-63
2021/08/02 10:45:47;;;;;;;7.40;3.27;;;;;;;23.47;65.91;99776.39;2958866;80;21010;-63
2021/08/02 10:49:53;;;;;;;3.83;3.30;;;;;;;23.29;65.95;99782.11;2885375;80;21478;-62
2021/08/02 10:54:00;;;;;;;4.20;3.35;;;;;;;23.40;67.01;99777.84;2960644;80;21019;-64
2021/08/02 10:58:12;;;;;;;3.33;2.95;;;;;;;23.52;66.57;99788.78;2936018;80;21034;-62
2021/08/02 11:02:15;;;;;;;8.53;3.95;;;;;;;23.37;66.71;99791.83;2939707;80;21035;-63
2021/08/02 11:06:18;;;;;;;4.28;3.37;;;;;;;22.92;68.30;99803.11;2890335;81;21121;-63
2021/08/02 11:10:22;;;;;;;7.08;3.30;;;;;;;22.50;72.10;99810.37;2949888;80;21031;-63
2021/08/02 11:14:27;;;;;;;3.77;2.98;;;;;;;22.59;72.43;99810.92;2955392;80;21000;-62
2021/08/02 11:18:32;;;;;;;10.18;3.30;;;;;;;22.74;72.92;99793.03;2911919;81;20955;-63
2021/08/02 11:22:56;;;;;;;4.12;3.72;;;;;;;22.76;71.65;99817.19;2934741;80;21077;-64
2021/08/02 11:27:04;;;;;;;3.65;3.35;;;;;;;22.67;71.47;99812.55;2915686;80;21015;-64
2021/08/02 11:31:11;;;;;;;3.50;2.80;;;;;;;22.55;72.27;99821.89;2942207;80;21075;-64
2021/08/02 11:35:13;;;;;;;4.05;2.45;;;;;;;22.34;70.98;99820.31;2905588;81;20973;-64
2021/08/02 11:39:19;;;;;;;5.65;2.52;;;;;;;22.04;70.39;99823.53;2901990;81;21000;-65
2021/08/02 11:43:34;;;;;;;5.70;3.45;;;;;;;21.85;72.56;99837.44;2911649;81;21267;-64
2021/08/02 11:47:44;;;;;;;4.72;3.02;;;;;;;21.45;76.13;99847.23;2914955;81;20991;-64
2021/08/02 11:51:55;;;;;;;3.55;3.35;;;;;;;21.23;76.80;99856.06;2872148;80;21043;-64
2021/08/02 11:56:01;;;;;;;3.42;3.12;;;;;;;21.12;77.57;99861.56;2907908;81;21078;-63
2021/08/02 12:00:18;;;;;;;4.65;4.10;;;;;;;21.08;77.88;99868.42;2922771;81;21031;-64
2021/08/02 12:04:24;;;;;;;6.03;4.75;;;;;;;20.97;75.63;99876.09;2877520;81;21121;-65
2021/08/02 12:08:31;;;;;;;5.60;4.72;;;;;;;20.77;77.18;99873.31;2924104;80;21622;-63
2021/08/02 12:12:49;;;;;;;5.47;3.85;;;;;;;20.86;77.19;99867.23;2924031;81;21039;-64
2021/08/02 12:17:13;;;;;;;6.03;4.17;;;;;;;20.87;77.48;99874.81;2913437;81;20995;-64
2021/08/02 12:21:24;;;;;;;6.20;5.22;;;;;;;20.83;78.08;99869.82;2924150;81;21054;-63
2021/08/02 12:25:46;;;;;;;11.22;4.78;;;;;;;20.83;79.41;99863.06;2924513;81;21046;-64
2021/08/02 12:30:10;;;;;;;5.17;4.78;;;;;;;21.28;79.91;99856.27;2914046;81;20960;-64
2021/08/02 12:34:13;;;;;;;5.83;5.30;;;;;;;21.67;77.35;99850.56;2890882;81;21008;-64
2021/08/02 12:38:19;;;;;;;5.05;4.50;;;;;;;22.08;74.78;99845.07;2883437;81;21000;-63
2021/08/02 12:42:28;;;;;;;5.45;4.40;;;;;;;22.33;74.43;99847.91;2877452;82;21004;-64
2021/08/02 12:46:30;;;;;;;7.80;5.15;;;;;;;22.42;72.72;99836.85;2867697;82;20995;-63
2021/08/02 12:50:35;;;;;;;4.17;3.87;;;;;;;22.61;73.46;99833.24;2894846;82;21031;-63
2021/08/02 12:54:38;;;;;;;7.28;3.90;;;;;;;22.86;72.82;99827.05;2895734;82;21067;-62
2021/08/02 12:58:41;;;;;;;5.08;3.62;;;;;;;23.07;70.60;99816.34;2895657;82;21044;-63
2021/08/02 13:02:43;;;;;;;3.75;3.12;;;;;;;23.33;70.84;99810.97;2882106;82;20995;-63
2021/08/02 13:06:47;;;;;;;3.98;3.30;;;;;;;23.52;69.58;99805.89;2859907;82;21068;-63
2021/08/02 13:10:49;;;;;;;3.35;3.05;;;;;;;23.59;65.77;99807.73;2846745;83;21094;-64
2021/08/02 13:14:54;;;;;;;3.05;2.17;;;;;;;23.80;65.89;99803.22;2846400;83;21079;-66
2021/08/02 13:19:00;;;;;;;2.08;1.98;;;;;;;23.95;62.78;99800.64;2846700;83;21016;-65
2021/08/02 13:23:08;;;;;;;2.40;1.80;;;;;;;24.06;61.14;99801.80;2846809;83;21012;-64
2021/08/02 13:27:08;;;;;;;3.17;1.77;;;;;;;24.25;60.04;99806.16;2845696;83;20984;-63
2021/08/02 13:31:11;;;;;;;3.58;2.22;;;;;;;24.43;58.73;99805.02;2847105;83;21035;-62
2021/08/02 13:35:16;;;;;;;2.87;1.95;;;;;;;24.63;58.31;99789.78;2862571;82;21019;-67
2021/08/02 13:39:24;;;;;;;7.90;2.67;;;;;;;24.66;56.56;99796.11;2915533;81;21039;-64
2021/08/02 13:43:26;;;;;;;3.98;1.50;;;;;;;24.56;55.37;99794.49;2920609;81;21043;-64
2021/08/02 13:47:40;;;;;;;3.02;2.08;;;;;;;24.49;55.16;99791.86;2911514;81;21055;-63
2021/08/02 13:51:43;;;;;;;1.90;1.07;;;;;;;24.18;55.89;99788.31;2899139;81;21012;-65
2021/08/02 13:55:44;;;;;;;1.72;1.50;;;;;;;23.97;57.79;99795.81;2901391;81;21091;-64
2021/08/02 13:59:46;;;;;;;4.10;1.70;;;;;;;23.89;55.97;99775.76;2901228;81;21011;-66
2021/08/02 14:03:50;;;;;;;3.52;1.52;;;;;;;23.88;55.59;99794.47;2902304;82;20992;-64
2021/08/02 14:07:52;;;;;;;4.33;2.00;;;;;;;23.98;56.08;99792.06;2912877;81;21103;-64
2021/08/02 14:12:12;;;;;;;11.00;1.52;;;;;;;24.07;55.79;99786.64;2914791;80;20987;-65
2021/08/02 14:16:23;;;;;;;1.80;1.32;;;;;;;24.45;55.52;99790.67;2911847;81;21473;-64
2021/08/02 14:20:26;;;;;;;1.07;0.88;;;;;;;24.91;52.64;99778.30;2909312;81;21005;-65
2021/08/02 14:24:29;;;;;;;1.45;1.20;;;;;;;25.02;52.21;99780.74;2952182;80;21019;-65
2021/08/02 14:28:42;;;;;;;1.00;0.90;;;;;;;24.84;52.38;99792.55;2938188;80;21087;-64
2021/08/02 14:32:44;;;;;;;2.10;1.40;;;;;;;24.49;52.82;99798.66;2950638;80;21541;-65
2021/08/02 14:36:47;;;;;;;2.37;1.10;;;;;;;24.41;54.62;99793.01;2897575;81;21062;-63
2021/08/02 14:40:51;;;;;;;1.60;1.42;;;;;;;24.63;54.63;99791.98;2889785;81;21016;-63
2021/08/02 14:45:01;;;;;;;4.57;1.33;;;;;;;24.63;52.41;99796.06;2908966;82;21041;-63
2021/08/02 14:49:09;;;;;;;3.30;1.65;;;;;;;24.51;53.27;99779.71;2965958;80;20976;-63
2021/08/02 14:53:13;;;;;;;7.45;1.72;;;;;;;24.80;54.06;99789.45;2966069;80;21020;-63
2021/08/02 14:57:17;;;;;;;1.75;0.90;;;;;;;24.71;51.96;99794.06;2966257;80;21008;-64
2021/08/02 15:01:19;;;;;;;1.92;1.47;;;;;;;24.41;53.00;99786.22;2965672;80;21490;-64
2021/08/02 15:05:22;;;;;;;1.45;1.30;;;;;;;24.12;52.91;99793.28;2965934;80;20988;-62
2021/08/02 15:09:36;;;;;;;2.27;1.22;;;;;;;23.79;53.02;99794.78;2965798;80;21009;-63
2021/08/02 15:13:38;;;;;;;1.47;1.00;;;;;;;23.56;53.97;99805.44;2965879;80;20985;-63
2021/08/02 15:17:50;;;;;;;2.25;1.45;;;;;;;23.59;53.94;99796.88;2965945;80;20981;-63
2021/08/02 15:21:59;;;;;;;1.72;1.12;;;;;;;24.09;54.19;99787.24;2965496;80;21013;-63
2021/08/02 15:26:05;;;;;;;1.67;1.55;;;;;;;24.45;52.27;99789.31;2966045;80;20969;-63
2021/08/02 15:30:11;;;;;;;1.77;1.40;;;;;;;24.65;52.67;99791.22;2966010;80;21040;-63
2021/08/02 15:34:13;;;;;;;5.53;1.60;;;;;;;24.67;52.40;99788.28;2966353;80;20997;-63
2021/08/02 15:38:20;;;;;;;9.53;1.22;;;;;;;24.47;52.29;99793.47;2940497;80;20975;-63
2021/08/02 15:42:24;;;;;;;1.80;1.50;;;;;;;24.17;52.73;99789.34;2898735;81;21048;-64
2021/08/02 15:46:27;;;;;;;1.55;1.35;;;;;;;23.89;53.38;99811.91;2889232;82;20963;-65
2021/08/02 15:50:35;;;;;;;3.92;1.70;;;;;;;23.76;54.89;99805.25;2888688;81;20979;-64
2021/08/02 15:54:43;;;;;;;1.77;1.10;;;;;;;23.85;56.24;99801.71;2871613;82;21023;-63
2021/08/02 15:58:53;;;;;;;1.82;1.72;;;;;;;24.06;54.84;99805.36;2884460;82;21014;-63
2021/08/02 16:03:16;;;;;;;3.02;1.50;;;;;;;24.04;54.29;99805.27;2886498;82;21019;-65
2021/08/02 16:07:22;;;;;;;2.85;1.02;;;;;;;23.98;53.70;99807.00;2908877;82;20972;-63
2021/08/02 16:11:27;;;;;;;;;;;;;;;23.98;53.95;99813.80;2896166;82;21050;-62
2021/08/02 16:15:32;;;;;;;5.03;0.90;;;;;;;24.00;54.19;99804.89;2879188;82;20478;-63
2021/08/02 16:19:38;;;;;;;1.05;0.98;;;;;;;24.01;55.10;99804.34;2900782;82;20951;-63
2021/08/02 16:23:40;;;;;;;2.55;1.62;;;;;;;23.95;53.90;99816.42;2877223;81;21030;-62
2021/08/02 16:27:43;;;;;;;1.15;0.80;;;;;;;24.01;54.07;99807.91;2900261;82;21006;-63
2021/08/02 16:31:45;;;;;;;1.57;1.00;;;;;;;23.97;53.68;99812.11;2880417;82;21094;-62
2021/08/02 16:35:47;;;;;;;6.97;1.45;;;;;;;23.87;54.64;99822.14;2894760;82;20991;-62
2021/08/02 16:39:48;;;;;;;2.08;1.27;;;;;;;23.96;54.45;99819.95;2924610;80;21026;-62
2021/08/02 16:43:51;;;;;;;1.57;1.12;;;;;;;24.01;53.80;99814.70;2941454;80;21011;-62
2021/08/02 16:48:03;;;;;;;1.52;1.17;;;;;;;23.98;53.12;99823.30;2920456;80;21027;-61
2021/08/02 16:52:06;;;;;;;2.87;1.32;;;;;;;23.96;53.89;99822.16;2965134;80;20963;-62
2021/08/02 16:56:08;;;;;;;5.50;1.62;;;;;;;23.88;54.28;99820.27;2917725;80;21035;-62
2021/08/02 17:00:12;;;;;;;1.55;1.30;;;;;;;23.79;54.91;99827.36;2946908;80;21007;-62
2021/08/02 17:04:13;;;;;;;1.65;1.47;;;;;;;23.70;54.98;99823.27;2949936;80;21006;-64
2021/08/02 17:08:16;;;;;;;6.30;2.30;;;;;;;23.64;54.41;99820.91;2953702;80;21042;-63
2021/08/02 17:12:18;;;;;;;1.87;1.32;;;;;;;23.59;54.98;99829.45;2936031;80;21026;-64
2021/08/02 17:16:20;;;;;;;4.47;1.37;;;;;;;23.51;55.68;99828.66;2944474;80;21023;-63
2021/08/02 17:20:21;;;;;;;15.48;2.95;;;;;;;23.43;54.56;99834.89;2955679;80;20975;-64
2021/08/02 17:24:27;;;;;;;1.90;0.90;;;;;;;23.35;54.58;99842.78;2950647;80;20988;-63
2021/08/02 17:28:31;;;;;;;1.60;0.98;;;;;;;23.24;53.69;99847.85;2951719;80;20995;-62
2021/08/02 17:32:33;;;;;;;1.25;0.90;;;;;;;23.10;53.79;99851.70;2950289;80;20967;-62
2021/08/02 17:36:42;;;;;;;2.50;0.95;;;;;;;23.00;54.31;99851.38;2945915;80;21062;-62
2021/08/02 17:40:44;;;;;;;1.15;1.02;;;;;;;22.88;55.04;99854.77;2950440;79;21030;-62
2021/08/02 17:44:46;;;;;;;2.33;1.55;;;;;;;22.77;55.60;99850.88;2959728;79;20983;-62
2021/08/02 17:48:57;;;;;;;2.70;1.80;;;;;;;22.64;55.87;99863.98;2929083;80;20986;-63
2021/08/02 17:53:01;;;;;;;1.57;1.40;;;;;;;22.50;56.64;99861.02;2925686;80;21101;-62
2021/08/02 17:57:03;;;;;;;2.77;1.25;;;;;;;22.25;57.23;99872.55;2941774;80;21002;-63
2021/08/02 18:01:05;;;;;;;1.25;1.12;;;;;;;21.97;58.09;99880.41;2938718;80;21026;-63
2021/08/02 18:05:09;;;;;;;2.98;0.90;;;;;;;21.72;58.92;99889.19;2941844;80;20999;-61
2021/08/02 18:09:12;;;;;;;1.65;1.10;;;;;;;21.50;59.69;99884.47;2951807;80;21105;-62
2021/08/02 18:13:14;;;;;;;4.22;2.30;;;;;;;21.31;60.36;99888.84;2947650;80;21014;-63
2021/08/02 18:17:20;;;;;;;3.42;1.50;;;;;;;21.12;60.86;99891.31;2945752;80;21043;-63
2021/08/02 18:21:25;;;;;;;1.92;1.50;;;;;;;20.91;61.53;99890.43;2950404;80;21551;-63
2021/08/02 18:25:27;;;;;;;5.83;2.60;;;;;;;20.74;62.16;99902.61;2950303;80;21050;-62
2021/08/02 18:29:35;;;;;;;2.55;2.33;;;;;;;20.54;62.55;99903.36;2946764;79;21007;-63
2021/08/02 18:33:37;;;;;;;3.08;2.20;;;;;;;20.47;63.36;99895.22;2940714;80;21029;-63
2021/08/02 18:37:39;;;;;;;4.30;2.42;;;;;;;20.27;64.03;99905.94;2958918;80;21014;-63
2021/08/02 18:41:40;;;;;;;3.60;2.47;;;;;;;20.10;64.49;99906.25;2939425;80;21011;-63
2021/08/02 18:45:42;;;;;;;3.83;3.00;;;;;;;19.98;64.99;99902.42;2950614;80;20944;-63
2021/08/02 18:49:45;;;;;;;2.58;2.27;;;;;;;19.95;65.58;99902.82;2944846;80;21038;-63
2021/08/02 18:53:47;;;;;;;7.55;3.05;;;;;;;19.95;66.23;99911.77;2952093;80;21097;-63
2021/08/02 18:57:50;;;;;;;12.40;3.47;;;;;;;20.00;66.75;99908.45;2920717;80;21536;-63
2021/08/02 19:01:53;;;;;;;4.90;2.87;;;;;;;20.02;66.99;99906.38;2937555;80;20963;-63
2021/08/02 19:05:56;;;;;;;4.37;2.70;;;;;;;20.01;67.16;99914.17;2925178;80;21047;-64
2021/08/02 19:10:00;;;;;;;3.42;2.75;;;;;;;19.91;67.32;99920.41;2964997;80;21070;-63
2021/08/02 19:14:04;;;;;;;3.50;2.87;;;;;;;19.83;67.74;99924.09;2931520;80;21007;-63